Nearby METAR Reports

 

EGMC - Southend-On-Sea, United Kingdom
Distance from station: NE 10km
Updated: 12/12/2019 01:50
Clear
Clear
 Wind from WSW
Wind: WSW 8 mph , 13 km/h
Temperature: 1°C
Wind Chill: -3°C
Dew Point: 1°C
Humidity: 100%
Barometer: 1002 hPa
Summary: Clear
Visibility: greater than 7 miles , 10 km
2019/12/12 01:50 EGMC 120150Z 24007KT CAVOK 01/01 Q1002
EGLC - London City Airp, United Kingdom
Distance from station: W 37km
Updated: 12/12/2019 02:20
Clear
Clear
 Wind from WSW
Wind: WSW 9 mph , 15 km/h
Temperature: 3°C
Wind Chill: -1°C
Dew Point: 1°C
Humidity: 87%
Barometer: 1003 hPa
Clouds: Clear
Visibility: 6 miles , 10 km
2019/12/12 02:20 EGLC 120220Z AUTO 25008KT 9999 NCD 03/01 Q1003
EGKB - Biggin Hill, United Kingdom
Distance from station: WSW 45km
Updated: 11/12/2019 21:50
NOT Current
Clear
Clear
 Wind from WSW
Wind: WSW 8 mph , 13 km/h
Temperature: 2°C
Wind Chill: -1°C
Dew Point: 1°C
Humidity: 93%
Barometer: 1003 hPa
Summary: Clear
Visibility: greater than 7 miles , 10 km
2019/12/11 21:50 EGKB 112150Z 25007KT 210V280 CAVOK 02/01 Q1003
 
EGSS - Stansted Airport, United Kingdom
Distance from station: NNW 48km
Updated: 12/12/2019 02:20
Mist, Clear
Mist, Clear
 Wind from SW
Wind: SW 7 mph , 11 km/h
Temperature: -1°C
Wind Chill: -5°C
Dew Point: -2°C
Humidity: 93%
Barometer: 1002 hPa
Summary: Mist
Clouds: Clear
Visibility: 3 miles , 5 km
2019/12/12 02:20 EGSS 120220Z AUTO 22006KT 5000 BR NCD M01/M02 Q1002
EGKK - London/Gatwick A, United Kingdom
Distance from station: SW 67km
Updated: 12/12/2019 02:20
Clear
Clear
 Wind from SSW
Wind: SSW 5 mph , 7 km/h
Temperature: 1°C
Wind Chill: -2°C
Dew Point: 1°C
Humidity: 100%
Barometer: 1003 hPa
Summary: Clear
Visibility: greater than 7 miles , 10 km
2019/12/12 02:20 EGKK 120220Z 21004KT CAVOK 01/01 Q1003
EGMD - Lydd Airport, United Kingdom
Distance from station: SSE 67km
Updated: 12/12/2019 02:20
Clear
Clear
 Wind from W
Wind: W 9 mph , 15 km/h
Temperature: 2°C
Wind Chill: -2°C
Dew Point: 1°C
Humidity: 93%
Barometer: 1004 hPa
Clouds: Clear
Visibility: 6 miles , 10 km
2019/12/12 02:20 EGMD 120220Z AUTO 26008KT 9999 NCD 02/01 Q1004
 
EGWU - Northolt Raf, United Kingdom
Distance from station: W 69km
Updated: 12/12/2019 01:50
Clear
Clear
 Wind from WSW
Wind: WSW 6 mph , 9 km/h
Temperature: 1°C
Wind Chill: -2°C
Dew Point: 0°C
Humidity: 93%
Barometer: 1002 hPa
Clouds: Clear
Visibility: 6 miles , 10 km
2019/12/12 01:50 EGWU 120150Z AUTO 25005KT 9999 // NCD 01/00 Q1002
EGLL - London/Heathrow, United Kingdom
Distance from station: W 72km
Updated: 12/12/2019 02:20
Clear
Clear
 Wind from SW
Wind: SW 3 mph , 6 km/h
Temperature: 1°C
Dew Point: 1°C
Humidity: 100%
Barometer: 1003 hPa
Clouds: Clear
Visibility: 6 miles , 10 km
2019/12/12 02:20 EGLL 120220Z AUTO 22003KT 9999 NCD 01/01 Q1003 NOSIG
EGUW - Wattisham Raf, United Kingdom
Distance from station: NNE 72km
Updated: 12/12/2019 01:50
Clear
Clear
 Wind from WSW
Wind: WSW 8 mph , 13 km/h
Temperature: 0°C
Wind Chill: -4°C
Dew Point: -1°C
Humidity: 93%
Barometer: 1001 hPa
Clouds: Clear
Visibility: 6 miles , 10 km
2019/12/12 01:50 EGUW 120150Z AUTO 24007KT 9999 NCD M00/M01 Q1001
 
EGGW - Luton Airport, United Kingdom
Distance from station: WNW 76km
Updated: 12/12/2019 02:20
Clear
Clear
 Wind from S
Wind: S 5 mph , 7 km/h
Temperature: 1°C
Wind Chill: -2°C
Dew Point: 1°C
Humidity: 100%
Barometer: 1001 hPa
Clouds: Clear
Visibility: 6 miles , 10 km
2019/12/12 02:20 EGGW 120220Z AUTO 18004KT 9999 NCD 01/01 Q1001
EGSC - Cambridge, United Kingdom
Distance from station: NNW 81km
Updated: 11/12/2019 17:50
NOT Current
Partly cloudy
Partly cloudy
 Wind from WSW
Wind: WSW 12 mph , 19 km/h
Temperature: 6°C
Wind Chill: 3°C
Dew Point: 3°C
Humidity: 81%
Barometer: 1000 hPa
Clouds: Partly cloudy
Visibility: 6 miles , 10 km
Cloud details: Few Clouds 762 m
Partly cloudy 1219 m
2019/12/11 17:50 EGSC 111750Z 24010KT 9999 FEW025 SCT040 06/03 Q1000